createdAt,value
2022-09-09T00:01:58.327Z,24.94
2022-09-09T00:04:24.686Z,24.72
2022-09-09T00:06:51.055Z,24.70
2022-09-09T00:09:17.396Z,24.81
2022-09-09T00:11:43.738Z,24.69
2022-09-09T00:14:10.109Z,26.40
2022-09-09T00:16:36.431Z,25.43
2022-09-09T00:19:02.792Z,25.09
2022-09-09T00:21:29.151Z,24.86
2022-09-09T00:23:55.487Z,24.87
2022-09-09T00:26:21.826Z,24.77
2022-09-09T00:28:48.194Z,24.83
2022-09-09T00:31:14.578Z,24.87
2022-09-09T00:33:40.955Z,25.32
2022-09-09T00:36:07.345Z,24.84
2022-09-09T00:38:33.755Z,25.17
2022-09-09T00:41:00.167Z,24.73
2022-09-09T00:43:26.544Z,24.68
2022-09-09T00:45:52.918Z,24.83
2022-09-09T00:48:19.275Z,25.08
2022-09-09T00:50:45.731Z,25.90
2022-09-09T00:53:12.067Z,26.16
2022-09-09T00:55:38.409Z,25.19
2022-09-09T00:58:04.880Z,24.89
2022-09-09T01:00:31.269Z,25.04
2022-09-09T01:02:57.693Z,24.66
2022-09-09T01:05:24.065Z,24.59
2022-09-09T01:07:51.549Z,25.05
2022-09-09T01:10:20.343Z,24.86
2022-09-09T01:12:46.772Z,24.79
2022-09-09T01:15:13.118Z,25.14
2022-09-09T01:17:39.459Z,25.08
2022-09-09T01:20:05.940Z,25.34
2022-09-09T01:22:32.262Z,25.14
2022-09-09T01:24:58.609Z,25.51
2022-09-09T01:27:24.968Z,25.12
2022-09-09T01:29:51.336Z,26.28
2022-09-09T01:32:17.671Z,26.21
2022-09-09T01:34:44.120Z,25.15
2022-09-09T01:37:10.476Z,25.14
2022-09-09T01:39:36.927Z,25.21
2022-09-09T01:42:03.410Z,24.97
2022-09-09T01:44:29.756Z,25.20
2022-09-09T01:46:56.096Z,24.85
2022-09-09T01:49:22.457Z,25.30
2022-09-09T01:51:48.862Z,25.00
2022-09-09T01:54:15.201Z,25.14
2022-09-09T01:56:41.666Z,25.28
2022-09-09T01:59:08.028Z,25.21
2022-09-09T02:01:34.410Z,25.13
2022-09-09T02:04:00.805Z,25.23
2022-09-09T02:06:27.147Z,24.89
2022-09-09T02:08:53.488Z,26.70
2022-09-09T02:11:19.840Z,25.75
2022-09-09T02:13:46.172Z,25.16
2022-09-09T02:16:12.536Z,25.33
2022-09-09T02:18:38.937Z,24.91
2022-09-09T02:21:05.292Z,24.88
2022-09-09T02:23:31.699Z,25.16
2022-09-09T02:25:58.124Z,24.93
2022-09-09T02:28:24.467Z,25.00
2022-09-09T02:30:50.846Z,25.17
2022-09-09T02:33:17.294Z,25.12
2022-09-09T02:35:43.625Z,25.43
2022-09-09T02:38:09.966Z,25.20
2022-09-09T02:40:36.344Z,25.11
2022-09-09T02:43:02.674Z,24.90
2022-09-09T02:45:29.030Z,26.69
2022-09-09T02:47:55.444Z,26.23
2022-09-09T02:50:21.778Z,25.44
2022-09-09T02:52:48.125Z,25.23
2022-09-09T02:55:14.521Z,25.20
2022-09-09T02:57:40.866Z,25.18
2022-09-09T03:00:07.198Z,25.10
2022-09-09T03:02:33.761Z,25.28
2022-09-09T03:05:00.115Z,25.10
2022-09-09T03:07:26.452Z,25.59
2022-09-09T03:09:52.883Z,25.41
2022-09-09T03:12:19.228Z,25.33
2022-09-09T03:14:45.563Z,25.19
2022-09-09T03:17:11.947Z,25.21
2022-09-09T03:19:38.283Z,25.34
2022-09-09T03:22:04.633Z,25.63
2022-09-09T03:24:30.983Z,26.31
2022-09-09T03:26:57.336Z,26.48
2022-09-09T03:29:23.693Z,25.75
2022-09-09T03:31:50.219Z,25.37
2022-09-09T03:34:16.582Z,25.45
2022-09-09T03:36:42.929Z,25.15
2022-09-09T03:39:09.306Z,25.35
2022-09-09T03:41:35.677Z,25.35
2022-09-09T03:44:02.056Z,25.22
2022-09-09T03:46:28.536Z,25.21
2022-09-09T03:48:54.875Z,25.64
2022-09-09T03:51:21.216Z,25.61
2022-09-09T03:53:47.569Z,25.39
2022-09-09T03:56:13.904Z,25.39
2022-09-09T03:58:40.234Z,25.40
2022-09-09T04:01:06.673Z,25.25
2022-09-09T04:03:33.066Z,27.34
2022-09-09T04:05:59.417Z,26.50
2022-09-09T04:08:25.788Z,26.36
2022-09-09T04:10:52.163Z,25.99
2022-09-09T04:13:18.493Z,26.10
2022-09-09T04:15:44.872Z,26.10
2022-09-09T04:18:11.206Z,26.13
2022-09-09T04:20:37.562Z,26.22
2022-09-09T04:23:03.936Z,26.66
2022-09-09T04:25:30.283Z,26.79
2022-09-09T04:27:56.628Z,26.58
2022-09-09T04:30:23.021Z,26.56
2022-09-09T04:32:49.348Z,26.85
2022-09-09T04:35:15.690Z,26.40
2022-09-09T04:37:42.156Z,27.64
2022-09-09T04:40:08.572Z,27.85
2022-09-09T04:42:34.977Z,26.83
2022-09-09T04:45:01.414Z,26.56
2022-09-09T04:47:27.757Z,26.24
2022-09-09T04:49:54.094Z,26.21
2022-09-09T04:52:20.475Z,26.27
2022-09-09T04:54:46.837Z,26.69
2022-09-09T04:57:16.610Z,26.75
2022-09-09T04:59:45.065Z,26.53
2022-09-09T05:02:11.449Z,26.52
2022-09-09T05:04:37.802Z,26.69
2022-09-09T05:07:04.191Z,26.84
2022-09-09T05:09:30.524Z,26.51
2022-09-09T05:11:56.874Z,28.38
2022-09-09T05:14:23.319Z,28.01
2022-09-09T05:16:49.673Z,27.08
2022-09-09T05:19:16.019Z,26.95
2022-09-09T05:21:42.468Z,26.85
2022-09-09T05:24:08.823Z,27.00
2022-09-09T05:26:35.167Z,26.86
2022-09-09T05:29:01.598Z,26.79
2022-09-09T05:31:28.064Z,27.18
2022-09-09T05:33:54.448Z,26.80
2022-09-09T05:36:20.817Z,27.12
2022-09-09T05:38:47.415Z,26.95
2022-09-09T05:41:13.741Z,27.35
2022-09-09T05:43:40.210Z,26.89
2022-09-09T05:46:06.560Z,28.56
2022-09-09T05:48:32.931Z,28.12
2022-09-09T05:50:59.419Z,27.29
2022-09-09T05:53:25.765Z,26.95
2022-09-09T05:55:52.129Z,26.87
2022-09-09T05:58:18.499Z,27.39
2022-09-09T06:00:44.838Z,27.63
2022-09-09T06:03:11.290Z,27.51
2022-09-09T06:05:37.732Z,27.70
2022-09-09T06:08:04.079Z,28.06
2022-09-09T06:10:30.429Z,27.96
2022-09-09T06:12:56.894Z,28.04
2022-09-09T06:15:23.247Z,28.43
2022-09-09T06:17:49.603Z,28.25
2022-09-09T06:20:16.041Z,29.62
2022-09-09T06:22:42.402Z,28.27
2022-09-09T06:25:08.738Z,27.74
2022-09-09T06:27:35.349Z,27.84
2022-09-09T06:30:01.724Z,27.59
2022-09-09T06:32:28.139Z,27.52
2022-09-09T06:34:54.529Z,28.13
2022-09-09T06:37:20.885Z,27.96
2022-09-09T06:39:47.305Z,28.03
2022-09-09T06:42:13.711Z,27.74
2022-09-09T06:44:40.071Z,27.99
2022-09-09T06:47:06.479Z,28.30
2022-09-09T06:49:32.894Z,29.40
2022-09-09T06:51:59.249Z,28.50
2022-09-09T06:54:25.688Z,28.35
2022-09-09T06:56:52.058Z,28.00
2022-09-09T06:59:18.426Z,28.09
2022-09-09T07:01:45.037Z,27.87
2022-09-09T07:04:11.611Z,28.41
2022-09-09T07:06:37.965Z,28.06
2022-09-09T07:09:04.446Z,28.34
2022-09-09T07:11:30.934Z,28.18
2022-09-09T07:13:57.267Z,28.66
2022-09-09T07:16:23.694Z,29.05
2022-09-09T07:18:50.099Z,29.97
2022-09-09T07:21:16.433Z,29.08
2022-09-09T07:23:42.816Z,28.67
2022-09-09T07:26:09.275Z,28.49
2022-09-09T07:28:37.399Z,27.75
2022-09-09T07:31:03.873Z,28.06
2022-09-09T07:33:30.338Z,28.21
2022-09-09T07:35:56.681Z,28.37
2022-09-09T07:38:23.028Z,28.44
2022-09-09T07:40:49.452Z,28.62
2022-09-09T07:43:17.450Z,28.74
2022-09-09T07:45:44.004Z,30.14
2022-09-09T07:48:10.426Z,29.47
2022-09-09T07:50:36.780Z,27.79
2022-09-09T07:53:03.105Z,27.33
2022-09-09T07:55:29.507Z,26.63
2022-09-09T07:57:55.877Z,27.03
2022-09-09T08:00:22.276Z,27.32
2022-09-09T08:02:48.728Z,26.94
2022-09-09T08:05:15.117Z,27.17
2022-09-09T08:07:41.525Z,27.06
2022-09-09T08:10:07.925Z,27.08
2022-09-09T08:12:36.195Z,27.96
2022-09-09T08:15:02.760Z,28.46
2022-09-09T08:17:29.221Z,27.13
2022-09-09T08:19:55.568Z,26.79
2022-09-09T08:22:21.906Z,27.08
2022-09-09T08:24:51.054Z,27.10
2022-09-09T08:27:17.418Z,27.02
2022-09-09T08:29:43.808Z,27.28
2022-09-09T08:32:10.250Z,27.23
2022-09-09T08:34:41.133Z,27.02
2022-09-09T08:37:07.858Z,27.08
2022-09-09T08:39:34.297Z,27.04
2022-09-09T08:42:00.692Z,28.29
2022-09-09T08:44:27.095Z,27.37
2022-09-09T08:46:53.557Z,26.54
2022-09-09T08:49:19.928Z,26.27
2022-09-09T08:51:46.267Z,26.33
2022-09-09T08:54:12.740Z,26.29
2022-09-09T08:56:39.078Z,26.31
2022-09-09T08:59:05.469Z,26.09
2022-09-09T09:01:31.881Z,26.50
2022-09-09T09:03:58.267Z,26.45
2022-09-09T09:06:24.618Z,26.63
2022-09-09T09:08:51.011Z,28.12
2022-09-09T09:11:17.395Z,27.48
2022-09-09T09:13:44.201Z,27.18
2022-09-09T09:16:10.646Z,26.83
2022-09-09T09:18:37.243Z,26.23
2022-09-09T09:21:03.664Z,26.35
2022-09-09T09:23:30.164Z,26.26
2022-09-09T09:25:56.534Z,25.90
2022-09-09T09:28:22.878Z,26.47
2022-09-09T09:30:49.314Z,26.01
2022-09-09T09:33:15.726Z,26.34
2022-09-09T09:35:44.403Z,26.77
2022-09-09T09:40:57.481Z,26.54
2022-09-09T09:43:24.019Z,26.04
2022-09-09T09:46:07.339Z,25.84
2022-09-09T09:48:36.755Z,26.08
2022-09-09T09:51:03.097Z,26.10
2022-09-09T09:53:29.491Z,26.08
2022-09-09T09:55:55.962Z,25.97
2022-09-09T09:58:22.355Z,25.83
2022-09-09T10:00:48.745Z,25.54
2022-09-09T10:03:15.179Z,25.90
2022-09-09T10:05:41.617Z,27.20
2022-09-09T10:08:07.995Z,25.42
2022-09-09T10:10:34.456Z,25.13
2022-09-09T10:13:00.847Z,25.26
2022-09-09T10:15:27.253Z,25.10
2022-09-09T10:17:53.704Z,24.46
2022-09-09T10:20:20.173Z,24.58
2022-09-09T10:22:46.555Z,24.60
2022-09-09T10:25:13.084Z,24.73
2022-09-09T10:27:39.469Z,24.57
2022-09-09T10:30:06.004Z,24.50
2022-09-09T10:32:32.385Z,26.24
2022-09-09T10:34:58.789Z,25.38
2022-09-09T10:37:25.123Z,24.31
2022-09-09T10:39:51.599Z,23.60
2022-09-09T10:42:17.963Z,23.62
2022-09-09T10:44:44.317Z,24.24
2022-09-09T10:47:10.695Z,23.95
2022-09-09T10:49:37.144Z,23.48
2022-09-09T10:52:03.897Z,23.14
2022-09-09T10:54:30.529Z,23.37
2022-09-09T10:56:56.877Z,23.69
2022-09-09T10:59:23.233Z,24.06
2022-09-09T11:01:49.651Z,25.43
2022-09-09T11:04:16.055Z,24.07
2022-09-09T11:06:42.453Z,24.07
2022-09-09T11:09:09.009Z,23.99
2022-09-09T11:11:35.388Z,23.72
2022-09-09T11:14:01.760Z,23.47
2022-09-09T11:16:28.273Z,23.42
2022-09-09T11:18:54.661Z,23.35
2022-09-09T11:21:21.158Z,23.20
2022-09-09T11:23:47.572Z,23.15
2022-09-09T11:26:14.087Z,23.08
2022-09-09T11:28:42.698Z,24.67
2022-09-09T11:31:09.344Z,24.24
2022-09-09T11:33:35.707Z,23.19
2022-09-09T11:36:04.495Z,22.86
2022-09-09T11:38:33.795Z,23.03
2022-09-09T11:41:00.154Z,22.51
2022-09-09T11:43:26.517Z,22.67
2022-09-09T11:45:55.147Z,22.74
2022-09-09T11:48:23.581Z,22.94
2022-09-09T11:50:49.937Z,22.59
2022-09-09T11:53:16.468Z,21.98
2022-09-09T11:55:42.851Z,22.56
2022-09-09T11:58:09.194Z,24.12
2022-09-09T12:00:35.734Z,22.43
2022-09-09T12:03:02.158Z,22.42
2022-09-09T12:05:28.576Z,22.18
2022-09-09T12:07:55.018Z,21.87
2022-09-09T12:10:21.365Z,21.98
2022-09-09T12:12:47.709Z,21.96
2022-09-09T12:15:14.164Z,22.25
2022-09-09T12:17:40.505Z,22.25
2022-09-09T12:20:06.845Z,22.79
2022-09-09T12:22:33.279Z,22.53
2022-09-09T12:24:59.667Z,23.22
2022-09-09T12:27:26.001Z,23.60
2022-09-09T12:29:52.418Z,22.50
2022-09-09T12:32:18.801Z,21.91
2022-09-09T12:34:45.143Z,21.68
2022-09-09T12:37:11.613Z,21.56
2022-09-09T12:39:38.149Z,21.82
2022-09-09T12:42:04.519Z,22.06
2022-09-09T12:44:31.006Z,22.28
2022-09-09T12:46:57.371Z,22.44
2022-09-09T12:49:23.750Z,22.29
2022-09-09T12:51:50.115Z,22.06
2022-09-09T12:54:16.461Z,23.49
2022-09-09T12:56:42.811Z,23.12
2022-09-09T12:59:09.898Z,21.98
2022-09-09T13:01:36.459Z,22.07
2022-09-09T13:04:02.883Z,21.78
2022-09-09T13:06:29.787Z,21.74
2022-09-09T13:08:56.234Z,21.96
2022-09-09T13:11:22.586Z,21.97
2022-09-09T13:13:49.049Z,21.60
2022-09-09T13:16:15.448Z,21.95
2022-09-09T13:18:41.845Z,21.85
2022-09-09T13:21:08.218Z,21.83
2022-09-09T13:23:34.590Z,23.25
2022-09-09T13:26:00.939Z,22.18
2022-09-09T13:28:27.391Z,21.62
2022-09-09T13:31:03.082Z,21.38
2022-09-09T13:33:30.061Z,21.47
2022-09-09T13:35:56.435Z,21.54
2022-09-09T13:38:27.080Z,22.04
2022-09-09T13:40:53.872Z,21.84
2022-09-09T13:43:20.216Z,22.32
2022-09-09T13:45:46.608Z,22.13
2022-09-09T13:48:13.024Z,22.44
2022-09-09T13:50:39.382Z,22.59
2022-09-09T13:53:05.744Z,23.86
2022-09-09T13:55:32.178Z,22.90
2022-09-09T13:57:58.532Z,22.40
2022-09-09T14:00:24.873Z,22.11
2022-09-09T14:02:51.277Z,22.03
2022-09-09T14:05:17.628Z,22.20
2022-09-09T14:07:44.011Z,22.28
2022-09-09T14:10:10.358Z,22.69
2022-09-09T14:12:36.719Z,22.49
2022-09-09T14:15:03.084Z,22.94
2022-09-09T14:17:29.686Z,22.54
2022-09-09T14:19:56.020Z,23.99
2022-09-09T14:22:22.386Z,23.84
2022-09-09T14:24:48.803Z,22.94
2022-09-09T14:27:15.185Z,22.43
2022-09-09T14:29:41.542Z,22.44
2022-09-09T14:32:12.483Z,22.31
2022-09-09T14:34:39.147Z,22.66
2022-09-09T14:37:05.496Z,22.89
2022-09-09T14:39:31.931Z,22.46
2022-09-09T14:41:58.308Z,22.79
2022-09-09T14:44:24.698Z,22.70
2022-09-09T14:46:51.173Z,22.91
2022-09-09T14:49:17.523Z,24.57
2022-09-09T14:51:43.907Z,23.32
2022-09-09T14:54:10.286Z,22.19
2022-09-09T14:56:36.667Z,21.95
2022-09-09T14:59:03.014Z,21.91
2022-09-09T15:01:29.578Z,21.97
2022-09-09T15:03:55.955Z,22.19
2022-09-09T15:06:22.320Z,22.73
2022-09-09T15:08:48.699Z,22.71
2022-09-09T15:11:15.055Z,22.73
2022-09-09T15:13:41.479Z,22.17
2022-09-09T15:16:07.928Z,23.77
2022-09-09T15:18:34.351Z,23.42
2022-09-09T15:21:00.803Z,22.53
2022-09-09T15:23:27.246Z,22.36
2022-09-09T15:25:53.643Z,22.46
2022-09-09T15:28:19.968Z,22.27
2022-09-09T15:30:46.388Z,22.52
2022-09-09T15:33:13.163Z,23.06
2022-09-09T15:35:39.538Z,22.93
2022-09-09T15:38:06.057Z,23.18
2022-09-09T15:40:32.399Z,23.42
2022-09-09T15:42:58.773Z,23.73
2022-09-09T15:45:25.269Z,24.71
2022-09-09T15:47:51.621Z,23.45
2022-09-09T15:50:17.978Z,22.75
2022-09-09T15:52:44.383Z,22.52
2022-09-09T15:55:10.724Z,22.62
2022-09-09T15:57:37.067Z,22.48
2022-09-09T16:00:03.491Z,22.84
2022-09-09T16:02:29.866Z,22.78
2022-09-09T16:04:56.236Z,22.87
2022-09-09T16:07:22.778Z,23.05
2022-09-09T16:09:49.124Z,23.04
2022-09-09T16:12:15.459Z,24.66
2022-09-09T16:14:41.845Z,23.71
2022-09-09T16:17:08.191Z,22.77
2022-09-09T16:19:34.674Z,23.15
2022-09-09T16:22:01.060Z,23.23
2022-09-09T16:24:27.650Z,23.00
2022-09-09T16:26:54.130Z,23.03
2022-09-09T16:29:20.567Z,22.99
2022-09-09T16:31:46.995Z,23.24
2022-09-09T16:34:13.466Z,23.32
2022-09-09T16:36:39.838Z,23.05
2022-09-09T16:39:06.205Z,24.50
2022-09-09T16:41:32.571Z,24.71
2022-09-09T16:43:59.082Z,23.56
2022-09-09T16:46:25.656Z,23.33
2022-09-09T16:48:52.072Z,22.85
2022-09-09T16:51:18.555Z,22.53
2022-09-09T16:53:44.887Z,22.52
2022-09-09T16:56:11.254Z,22.79
2022-09-09T16:58:37.781Z,23.00
2022-09-09T17:01:04.210Z,22.55
2022-09-09T17:03:30.613Z,22.90
2022-09-09T17:05:56.993Z,22.98
2022-09-09T17:08:23.339Z,24.03
2022-09-09T17:10:49.690Z,24.46
2022-09-09T17:13:16.061Z,23.05
2022-09-09T17:15:42.454Z,22.68
2022-09-09T17:18:08.813Z,22.36
2022-09-09T17:20:45.960Z,22.46
2022-09-09T17:23:13.454Z,22.64
2022-09-09T17:25:39.911Z,22.58
2022-09-09T17:28:06.249Z,22.96
2022-09-09T17:30:32.591Z,23.05
2022-09-09T17:32:59.067Z,22.95
2022-09-09T17:35:25.400Z,22.54
2022-09-09T17:37:51.748Z,23.47
2022-09-09T17:40:18.200Z,24.60
2022-09-09T17:42:44.596Z,22.86
2022-09-09T17:45:10.940Z,22.56
2022-09-09T17:47:37.309Z,22.50
2022-09-09T17:50:03.783Z,22.58
2022-09-09T17:52:30.158Z,22.39
2022-09-09T17:54:56.510Z,22.10
2022-09-09T17:57:22.859Z,22.07
2022-09-09T17:59:49.197Z,22.68
2022-09-09T18:02:15.617Z,22.65
2022-09-09T18:04:42.035Z,22.78
2022-09-09T18:07:08.380Z,22.68
2022-09-09T18:09:34.768Z,24.78
2022-09-09T18:12:01.114Z,23.78
2022-09-09T18:14:27.459Z,23.35
2022-09-09T18:16:53.830Z,22.50
2022-09-09T18:19:20.175Z,22.70
2022-09-09T18:21:46.520Z,22.86
2022-09-09T18:24:12.908Z,22.80
2022-09-09T18:26:39.244Z,22.64
2022-09-09T18:29:05.583Z,22.88
2022-09-09T18:31:32.060Z,22.96
2022-09-09T18:33:58.428Z,23.02
2022-09-09T18:36:24.777Z,22.99
2022-09-09T18:38:51.304Z,22.66
2022-09-09T18:41:17.633Z,24.68
2022-09-09T18:43:43.992Z,24.16
2022-09-09T18:46:10.364Z,23.17
2022-09-09T18:48:36.814Z,22.86
2022-09-09T18:51:03.282Z,22.94
2022-09-09T18:53:29.646Z,22.46
2022-09-09T18:55:55.997Z,22.58
2022-09-09T18:58:22.344Z,22.75
2022-09-09T19:00:48.977Z,23.00
2022-09-09T19:03:15.361Z,22.97
2022-09-09T19:05:41.715Z,22.77
2022-09-09T19:08:08.181Z,23.13
2022-09-09T19:10:34.526Z,23.03
2022-09-09T19:13:00.948Z,23.21
2022-09-09T19:15:27.443Z,24.94
2022-09-09T19:17:53.772Z,24.43
2022-09-09T19:20:20.111Z,23.14
2022-09-09T19:22:46.553Z,23.17
2022-09-09T19:25:12.896Z,23.06
2022-09-09T19:27:39.261Z,22.72
2022-09-09T19:30:05.648Z,22.79
2022-09-09T19:35:18.415Z,22.86
2022-09-09T19:37:44.754Z,22.86
2022-09-09T19:40:11.153Z,23.01
2022-09-09T19:42:37.618Z,23.24
2022-09-09T19:45:04.051Z,23.33
2022-09-09T19:47:30.463Z,22.69
2022-09-09T19:49:56.835Z,25.15
2022-09-09T19:52:23.201Z,23.84
2022-09-09T19:54:49.551Z,23.44
2022-09-09T19:57:15.933Z,23.11
2022-09-09T19:59:42.270Z,23.18
2022-09-09T20:02:08.668Z,23.10
2022-09-09T20:04:35.098Z,22.72
2022-09-09T20:07:01.442Z,23.17
2022-09-09T20:09:27.780Z,23.02
2022-09-09T20:11:54.141Z,23.13
2022-09-09T20:14:20.469Z,22.89
2022-09-09T20:16:46.844Z,23.12
2022-09-09T20:19:13.211Z,23.06
2022-09-09T20:21:41.873Z,22.82
2022-09-09T20:24:11.573Z,25.14
2022-09-09T20:26:37.926Z,23.77
2022-09-09T20:29:04.269Z,23.09
2022-09-09T20:31:30.668Z,23.18
2022-09-09T20:33:57.082Z,22.83
2022-09-09T20:36:23.433Z,22.86
2022-09-09T20:38:49.770Z,22.77
2022-09-09T20:41:16.220Z,23.25
2022-09-09T20:43:42.564Z,23.33
2022-09-09T20:46:08.953Z,23.39
2022-09-09T20:48:35.477Z,23.25
2022-09-09T20:51:02.009Z,23.23
2022-09-09T20:53:28.338Z,23.01
2022-09-09T20:55:54.773Z,23.02
2022-09-09T20:58:21.106Z,24.89
2022-09-09T21:00:47.454Z,24.58
2022-09-09T21:03:13.833Z,23.36
2022-09-09T21:05:40.194Z,23.30
2022-09-09T21:08:06.558Z,23.20
2022-09-09T21:10:32.953Z,23.20
2022-09-09T21:12:59.290Z,22.82
2022-09-09T21:15:25.645Z,23.23
2022-09-09T21:17:52.009Z,23.39
2022-09-09T21:20:18.341Z,23.04
2022-09-09T21:22:44.692Z,23.17
2022-09-09T21:25:11.139Z,23.28
2022-09-09T21:27:37.466Z,23.36
2022-09-09T21:30:05.008Z,23.60
2022-09-09T21:32:31.382Z,23.23
2022-09-09T21:34:57.729Z,25.18
2022-09-09T21:37:24.081Z,24.10
2022-09-09T21:39:50.482Z,23.67
2022-09-09T21:42:16.849Z,23.30
2022-09-09T21:44:43.222Z,23.02
2022-09-09T21:47:09.677Z,23.31
2022-09-09T21:49:36.012Z,23.06
2022-09-09T21:52:02.361Z,23.36
2022-09-09T21:54:28.846Z,23.44
2022-09-09T21:56:55.178Z,23.43
2022-09-09T21:59:21.518Z,23.34
2022-09-09T22:01:47.941Z,23.35
2022-09-09T22:04:14.324Z,23.22
2022-09-09T22:06:40.663Z,23.20
2022-09-09T22:09:07.025Z,25.21
2022-09-09T22:11:33.361Z,24.14
2022-09-09T22:13:59.725Z,23.75
2022-09-09T22:16:26.186Z,23.46
2022-09-09T22:18:54.929Z,23.08
2022-09-09T22:21:21.281Z,23.18
2022-09-09T22:23:47.655Z,23.37
2022-09-09T22:26:14.000Z,23.13
2022-09-09T22:28:40.476Z,23.34
2022-09-09T22:31:06.980Z,23.36
2022-09-09T22:33:33.402Z,23.54
2022-09-09T22:35:59.727Z,23.51
2022-09-09T22:38:26.088Z,23.63
2022-09-09T22:40:52.417Z,23.43
2022-09-09T22:43:18.753Z,24.02
2022-09-09T22:45:45.124Z,24.86
2022-09-09T22:48:11.452Z,23.79
2022-09-09T22:50:41.926Z,23.45
2022-09-09T22:53:08.770Z,23.09
2022-09-09T22:55:35.113Z,23.40
2022-09-09T22:58:01.466Z,23.51
2022-09-09T23:00:27.900Z,23.33
2022-09-09T23:02:54.235Z,23.65
2022-09-09T23:05:20.570Z,23.33
2022-09-09T23:07:46.935Z,23.55
2022-09-09T23:10:13.281Z,23.73
2022-09-09T23:12:39.654Z,23.43
2022-09-09T23:15:06.099Z,23.74
2022-09-09T23:17:32.443Z,23.51
2022-09-09T23:19:58.771Z,25.40
2022-09-09T23:22:25.221Z,24.51
2022-09-09T23:24:51.552Z,23.81
2022-09-09T23:27:17.875Z,23.55
2022-09-09T23:29:44.248Z,23.49
2022-09-09T23:32:10.605Z,23.55
2022-09-09T23:34:36.931Z,23.42
2022-09-09T23:37:03.272Z,23.23
2022-09-09T23:39:29.603Z,23.35
2022-09-09T23:41:55.945Z,23.63
2022-09-09T23:44:22.304Z,23.75
2022-09-09T23:46:48.655Z,23.69
2022-09-09T23:49:15.018Z,23.77
2022-09-09T23:51:41.469Z,23.52
2022-09-09T23:54:07.812Z,23.57
2022-09-09T23:56:34.144Z,25.20
2022-09-09T23:59:00.528Z,24.82
